Time;durP1;ratioP1;P1;durP2;ratioP2;P2;SDS_P1;SDS_P2;PMS_P1;PMS_P2;Temp;Humidity;BMP_temperature;BMP_pressure;BME280_temperature;BME280_humidity;BME280_pressure;Samples;Min_cycle;Max_cycle;Signal;HPM_P1;HPM_P2
2022/10/04 00:00:29;;;;;;;222.43;212.37;;;6.90;37.50;;;;;;5013362;28;20422;-69
2022/10/04 00:03:08;;;;;;;89.03;84.37;;;6.90;37.30;;;;;;5044944;28;20465;-70
2022/10/04 00:05:34;;;;;;;465.23;442.13;;;6.90;37.00;;;;;;5011744;28;20927;-69
2022/10/04 00:08:32;;;;;;;490.17;467.47;;;6.80;38.40;;;;;;5013712;28;20407;-70
2022/10/04 00:11:05;;;;;;;131.07;124.03;;;6.90;37.20;;;;;;5002213;28;20859;-70
2022/10/04 00:13:33;;;;;;;424.63;404.63;;;7.00;36.50;;;;;;5013080;28;20491;-69
2022/10/04 00:15:58;;;;;;;454.33;432.50;;;6.90;36.10;;;;;;5013089;28;20434;-70
2022/10/04 00:18:37;;;;;;;96.33;91.17;;;6.90;36.30;;;;;;5011662;28;20422;-69
2022/10/04 00:21:04;;;;;;;78.47;73.87;;;7.00;35.80;;;;;;5012731;28;20200;-70
2022/10/04 00:23:36;;;;;;;178.57;170.10;;;6.80;36.80;;;;;;5012903;28;20411;-69
2022/10/04 00:26:22;;;;;;;94.37;88.47;;;6.80;37.00;;;;;;5012802;28;20431;-69
2022/10/04 00:28:48;;;;;;;59.80;55.03;;;6.70;36.80;;;;;;5012900;28;20425;-69
2022/10/04 00:31:19;;;;;;;189.27;179.73;;;6.60;38.30;;;;;;5012575;28;20418;-70
2022/10/04 00:34:02;;;;;;;117.00;111.03;;;6.40;39.30;;;;;;5012719;28;20415;-69
2022/10/04 00:36:34;;;;;;;62.33;58.53;;;6.40;39.60;;;;;;5012572;28;20450;-69
2022/10/04 00:39:03;;;;;;;47.37;43.43;;;6.30;40.70;;;;;;5012235;28;20501;-69
2022/10/04 00:41:50;;;;;;;48.10;45.27;;;6.10;40.90;;;;;;5012180;28;20514;-69
2022/10/04 00:44:40;;;;;;;190.40;181.85;;;6.10;41.90;;;;;;5012681;28;20418;-69
2022/10/04 00:47:31;;;;;;;339.20;325.03;;;6.00;43.20;;;;;;5011338;28;20182;-69
2022/10/04 00:50:06;;;;;;;25.07;22.30;;;6.10;44.50;;;;;;5011934;28;20817;-69
2022/10/04 00:52:35;;;;;;;33.63;31.10;;;6.10;42.70;;;;;;5012255;28;20753;-69
2022/10/04 00:55:07;;;;;;;81.68;76.80;;;5.80;42.60;;;;;;5012346;28;20462;-69
2022/10/04 00:57:43;;;;;;;36.60;33.67;;;5.70;43.80;;;;;;5012487;28;20174;-69
2022/10/04 01:00:18;;;;;;;91.70;87.03;;;5.60;44.90;;;;;;5012928;28;20417;-69
2022/10/04 01:02:51;;;;;;;30.80;27.23;;;5.70;46.00;;;;;;5010808;28;20300;-69
2022/10/04 01:05:23;;;;;;;225.77;215.70;;;5.60;45.60;;;;;;5012345;28;20595;-69
2022/10/04 01:07:54;;;;;;;202.87;193.90;;;5.60;46.80;;;;;;5012424;28;20170;-69
2022/10/04 01:10:31;;;;;;;311.17;296.97;;;5.70;47.50;;;;;;5012329;28;20417;-69
2022/10/04 01:13:26;;;;;;;268.73;257.00;;;5.80;47.10;;;;;;5011984;28;20904;-70
2022/10/04 01:16:16;;;;;;;70.63;66.38;;;5.90;46.80;;;;;;5008305;28;20455;-70
2022/10/04 01:18:42;;;;;;;183.27;174.85;;;5.80;47.00;;;;;;5010861;28;20186;-70
2022/10/04 01:21:25;;;;;;;465.17;442.53;;;5.90;46.10;;;;;;5010564;28;20540;-70
2022/10/04 01:23:57;;;;;;;247.73;236.23;;;5.90;46.20;;;;;;5012060;28;20420;-70
2022/10/04 01:26:27;;;;;;;388.00;368.83;;;6.00;45.30;;;;;;5012435;28;20442;-68
2022/10/04 01:28:57;;;;;;;177.20;167.63;;;6.00;45.40;;;;;;5012348;28;20450;-69
2022/10/04 01:31:25;;;;;;;249.80;237.47;;;6.00;44.30;;;;;;5010556;28;20435;-69
2022/10/04 01:33:51;;;;;;;203.13;191.70;;;5.90;43.20;;;;;;5010855;28;20421;-69
2022/10/04 01:36:17;;;;;;;264.13;251.40;;;5.80;43.30;;;;;;5011142;28;20468;-68
2022/10/04 01:38:42;;;;;;;215.77;204.47;;;5.60;43.70;;;;;;5011924;28;20467;-68
2022/10/04 01:41:10;;;;;;;202.90;191.37;;;5.50;44.30;;;;;;5011710;28;20469;-68
2022/10/04 01:43:40;;;;;;;350.58;332.52;;;5.50;44.70;;;;;;5011914;28;20171;-69
2022/10/04 01:46:14;;;;;;;278.00;262.95;;;5.40;46.20;;;;;;5012030;28;20232;-68
2022/10/04 01:48:43;;;;;;;372.77;354.02;;;5.30;47.40;;;;;;5011858;28;20202;-68
2022/10/04 01:51:25;;;;;;;247.13;234.30;;;5.40;48.20;;;;;;5010405;28;20239;-68
2022/10/04 01:54:08;;;;;;;324.70;308.30;;;5.40;48.50;;;;;;5011955;28;20426;-69
2022/10/04 01:56:46;;;;;;;325.90;309.65;;;5.60;48.70;;;;;;5012293;28;20438;-68
2022/10/04 01:59:29;;;;;;;354.97;337.07;;;5.70;48.70;;;;;;5010548;28;20194;-69
2022/10/04 02:02:06;;;;;;;203.90;190.50;;;5.60;48.70;;;;;;5011527;28;20471;-68
2022/10/04 02:04:35;;;;;;;179.43;169.40;;;5.60;48.20;;;;;;5011782;28;20205;-68
2022/10/04 02:07:02;;;;;;;187.55;175.95;;;5.70;48.80;;;;;;5012024;28;20171;-69
2022/10/04 02:09:32;;;;;;;612.92;581.40;;;5.60;48.70;;;;;;5011863;28;20171;-69
2022/10/04 02:11:59;;;;;;;421.83;400.02;;;5.70;48.70;;;;;;5010417;28;20286;-69
2022/10/04 02:14:32;;;;;;;527.23;499.47;;;5.80;48.80;;;;;;5011548;28;20185;-70
2022/10/04 02:17:00;;;;;;;577.10;546.50;;;5.80;48.80;;;;;;5011906;28;20416;-69
2022/10/04 02:19:39;;;;;;;541.17;513.43;;;5.80;47.90;;;;;;5011941;28;20914;-68
2022/10/04 02:22:08;;;;;;;572.07;540.43;;;5.90;48.90;;;;;;5010582;28;20561;-69
2022/10/04 02:24:37;;;;;;;531.50;505.47;;;6.10;49.10;;;;;;5011757;28;20595;-68
2022/10/04 02:27:05;;;;;;;499.80;474.73;;;6.10;46.90;;;;;;5011933;28;20417;-69
2022/10/04 02:29:31;;;;;;;423.53;402.07;;;6.20;46.70;;;;;;5013515;28;20414;-68
2022/10/04 02:34:41;;;;;;;536.57;509.00;;;6.00;44.00;;;;;;5015237;28;20599;-69
2022/10/04 02:37:07;;;;;;;540.10;512.67;;;6.10;45.70;;;;;;5015319;28;20504;-70
2022/10/04 02:39:42;;;;;;;466.43;442.83;;;6.20;45.90;;;;;;5015386;28;20190;-68
2022/10/04 02:42:20;;;;;;;446.40;423.20;;;6.30;45.50;;;;;;5014734;28;20600;-69
2022/10/04 02:44:54;;;;;;;519.50;490.70;;;6.30;44.90;;;;;;5014838;28;20774;-69
2022/10/04 02:47:23;;;;;;;442.30;419.03;;;6.20;43.90;;;;;;5015004;28;20421;-69
2022/10/04 02:49:53;;;;;;;573.40;542.90;;;6.00;43.20;;;;;;5014803;28;20772;-70
2022/10/04 02:52:33;;;;;;;299.03;282.53;;;6.10;44.10;;;;;;5013069;28;20429;-69
2022/10/04 02:55:09;;;;;;;265.57;247.77;;;5.90;42.60;;;;;;5014707;28;20437;-70
2022/10/04 02:57:35;;;;;;;321.63;303.27;;;5.80;43.80;;;;;;5013492;28;20429;-69
2022/10/04 03:00:17;;;;;;;333.20;315.33;;;5.80;44.70;;;;;;5014654;28;20668;-69
2022/10/04 03:03:11;;;;;;;618.90;587.95;;;5.80;45.20;;;;;;5014251;28;20463;-69
2022/10/04 03:05:39;;;;;;;525.63;498.23;;;5.90;46.10;;;;;;5014273;28;20207;-70
2022/10/04 03:08:05;;;;;;;546.33;518.70;;;6.00;46.70;;;;;;5014448;28;20430;-69
2022/10/04 03:10:31;;;;;;;594.07;563.60;;;6.20;46.40;;;;;;5013022;28;20419;-69
2022/10/04 03:12:57;;;;;;;531.77;504.23;;;6.30;46.70;;;;;;5013945;28;20507;-69
2022/10/04 03:15:23;;;;;;;644.65;609.55;;;6.40;46.00;;;;;;5012927;28;20497;-69
2022/10/04 03:17:49;;;;;;;535.50;506.30;;;6.30;44.30;;;;;;5014438;28;20640;-70
2022/10/04 03:20:20;;;;;;;506.23;480.37;;;6.40;43.70;;;;;;5014608;28;20425;-69
2022/10/04 03:22:49;;;;;;;628.47;595.13;;;6.30;42.90;;;;;;5013862;28;20215;-69
2022/10/04 03:25:20;;;;;;;396.33;376.23;;;6.40;44.30;;;;;;5013261;28;20430;-69
2022/10/04 03:27:46;;;;;;;273.20;257.43;;;6.30;42.70;;;;;;5013955;28;20422;-68
2022/10/04 03:30:19;;;;;;;313.50;297.10;;;6.10;41.90;;;;;;5013920;28;20789;-69
2022/10/04 03:32:45;;;;;;;592.07;562.53;;;6.10;42.50;;;;;;5013677;28;20414;-70
2022/10/04 03:35:27;;;;;;;609.50;577.80;;;6.20;43.30;;;;;;5013600;28;20464;-69
2022/10/04 03:37:55;;;;;;;257.13;243.17;;;6.20;43.30;;;;;;5013779;28;20957;-69
2022/10/04 03:40:26;;;;;;;528.77;502.10;;;6.30;42.70;;;;;;5013606;28;20445;-69
2022/10/04 03:42:52;;;;;;;529.23;502.20;;;6.20;42.90;;;;;;5013384;28;20457;-70
2022/10/04 03:45:19;;;;;;;561.50;533.43;;;6.30;42.40;;;;;;5013592;28;20770;-69
2022/10/04 03:47:48;;;;;;;393.33;373.50;;;6.20;43.00;;;;;;5013536;28;20418;-69
2022/10/04 03:50:19;;;;;;;417.47;395.27;;;6.20;41.70;;;;;;5013532;28;20417;-69
2022/10/04 03:52:56;;;;;;;427.90;406.13;;;6.00;42.70;;;;;;5011833;28;20552;-69
2022/10/04 03:55:31;;;;;;;548.17;520.57;;;6.10;42.90;;;;;;5013419;28;20832;-69
2022/10/04 03:57:57;;;;;;;628.93;597.93;;;6.10;43.50;;;;;;5012242;28;20415;-69
2022/10/04 04:00:23;;;;;;;445.40;423.08;;;6.00;44.00;;;;;;5015967;28;20429;-68
2022/10/04 04:02:55;;;;;;;542.97;515.47;;;6.20;43.80;;;;;;5032900;28;20706;-69
2022/10/04 04:05:34;;;;;;;292.77;276.60;;;6.10;42.90;;;;;;5033315;28;20847;-69
2022/10/04 04:08:21;;;;;;;542.80;515.53;;;6.10;42.50;;;;;;5032941;28;20492;-69
2022/10/04 04:10:51;;;;;;;668.07;633.50;;;6.10;43.40;;;;;;5032746;28;20416;-69
2022/10/04 04:13:29;;;;;;;528.67;502.73;;;6.20;44.10;;;;;;5033040;28;20948;-69
2022/10/04 04:15:56;;;;;;;553.60;524.87;;;6.30;43.70;;;;;;5033031;28;20437;-68
2022/10/04 04:18:29;;;;;;;498.83;473.90;;;6.40;43.00;;;;;;5032586;28;20414;-68
2022/10/04 04:20:58;;;;;;;485.47;460.87;;;6.40;42.30;;;;;;5031285;28;20961;-69
2022/10/04 04:23:31;;;;;;;486.07;461.93;;;6.40;42.00;;;;;;5032746;28;20445;-68
2022/10/04 04:26:19;;;;;;;493.23;468.23;;;6.40;40.60;;;;;;5032564;28;20961;-70
2022/10/04 04:28:47;;;;;;;377.13;357.93;;;6.40;39.60;;;;;;5021754;28;20542;-68
2022/10/04 04:31:24;;;;;;;565.53;536.23;;;6.10;39.00;;;;;;5032369;28;20413;-68
2022/10/04 04:33:59;;;;;;;250.60;235.07;;;6.10;40.10;;;;;;5025729;28;20451;-68
2022/10/04 04:36:27;;;;;;;336.90;319.33;;;5.90;38.80;;;;;;5021062;28;20469;-68
2022/10/04 04:41:39;;;;;;;506.03;480.73;;;5.90;41.00;;;;;;5031175;28;20216;-69
2022/10/04 04:44:18;;;;;;;267.58;252.70;;;5.80;41.50;;;;;;5032310;28;20423;-69
2022/10/04 04:46:45;;;;;;;272.42;257.80;;;5.50;42.10;;;;;;5032426;28;20256;-69
2022/10/04 04:49:14;;;;;;;336.55;319.48;;;5.40;43.50;;;;;;5032115;28;20201;-69
2022/10/04 04:51:45;;;;;;;445.60;423.57;;;5.40;44.20;;;;;;5031416;28;20182;-69
2022/10/04 04:54:11;;;;;;;319.45;302.50;;;5.60;44.10;;;;;;5032227;28;20496;-68
2022/10/04 04:56:36;;;;;;;504.70;478.70;;;5.60;42.30;;;;;;5030858;28;20625;-69
2022/10/04 04:59:06;;;;;;;568.67;540.10;;;5.70;42.50;;;;;;5032233;28;20308;-69
2022/10/04 05:01:41;;;;;;;274.43;259.73;;;5.80;42.50;;;;;;5031746;28;20213;-68
2022/10/04 05:04:12;;;;;;;398.98;378.52;;;5.70;40.60;;;;;;5032076;28;20803;-69
2022/10/04 05:07:05;;;;;;;355.33;337.15;;;5.40;42.10;;;;;;5031895;28;20199;-69
2022/10/04 05:09:31;;;;;;;416.35;395.05;;;5.50;43.20;;;;;;5030811;28;20221;-69
2022/10/04 05:12:13;;;;;;;575.10;546.42;;;5.70;43.00;;;;;;5030326;28;20185;-69
2022/10/04 05:14:45;;;;;;;501.13;475.90;;;5.80;42.20;;;;;;5031841;28;20211;-68
2022/10/04 05:17:22;;;;;;;558.03;529.50;;;5.80;41.00;;;;;;5031893;28;20619;-69
2022/10/04 05:19:49;;;;;;;346.85;328.85;;;5.80;40.60;;;;;;5031905;28;20185;-69
2022/10/04 05:22:19;;;;;;;470.33;447.07;;;5.90;39.60;;;;;;5031772;28;20260;-69
2022/10/04 05:24:49;;;;;;;557.80;530.13;;;5.90;38.80;;;;;;5030444;28;20475;-69
2022/10/04 05:27:39;;;;;;;545.25;517.90;;;5.90;38.80;;;;;;5031728;28;20225;-70
2022/10/04 05:30:25;;;;;;;362.55;343.50;;;5.90;38.90;;;;;;5031715;28;20518;-70
2022/10/04 05:33:10;;;;;;;327.67;310.98;;;5.90;38.40;;;;;;5031454;28;20223;-69
2022/10/04 05:36:08;;;;;;;617.70;586.93;;;5.50;38.60;;;;;;5031409;28;20217;-69
2022/10/04 05:38:54;;;;;;;289.80;274.35;;;5.50;40.60;;;;;;5031642;28;20511;-69
2022/10/04 05:41:35;;;;;;;452.75;429.63;;;5.50;39.80;;;;;;5030769;28;20823;-70
2022/10/04 05:44:01;;;;;;;288.90;273.58;;;5.20;41.90;;;;;;5031691;28;20182;-70
2022/10/04 05:46:34;;;;;;;259.83;245.45;;;5.20;42.10;;;;;;5031488;28;20229;-69
2022/10/04 05:49:14;;;;;;;475.65;452.30;;;5.30;42.80;;;;;;5031578;28;20173;-70
2022/10/04 05:51:53;;;;;;;384.88;365.10;;;5.40;43.50;;;;;;5030406;28;20189;-69
2022/10/04 05:54:22;;;;;;;521.03;495.42;;;5.50;44.00;;;;;;5030143;28;20187;-69
2022/10/04 05:57:04;;;;;;;487.13;463.23;;;5.50;43.90;;;;;;5031469;28;20184;-70
2022/10/04 05:59:51;;;;;;;246.25;232.68;;;5.40;43.70;;;;;;5032751;28;20177;-69
2022/10/04 06:02:35;;;;;;;506.17;480.80;;;5.40;43.90;;;;;;5030758;28;20204;-69
2022/10/04 06:05:11;;;;;;;288.48;273.02;;;5.50;45.30;;;;;;5034107;28;20192;-72
2022/10/04 06:07:58;;;;;;;423.02;402.08;;;5.60;44.70;;;;;;5035479;28;20224;-69
2022/10/04 06:10:52;;;;;;;517.95;492.92;;;5.80;44.50;;;;;;5033996;28;20177;-69
2022/10/04 06:13:50;;;;;;;551.92;523.55;;;5.90;43.90;;;;;;5033792;28;20183;-69
2022/10/04 06:16:30;;;;;;;284.20;267.40;;;6.10;44.10;;;;;;5035111;28;20341;-69
2022/10/04 06:19:11;;;;;;;426.63;404.00;;;6.20;42.10;;;;;;5034845;28;20420;-69
2022/10/04 06:22:19;;;;;;;400.20;379.63;;;6.20;41.90;;;;;;5034725;28;20954;-69
2022/10/04 06:24:51;;;;;;;369.23;350.03;;;6.30;42.60;;;;;;5034902;28;20432;-68
2022/10/04 06:27:40;;;;;;;629.83;596.57;;;6.60;42.70;;;;;;5034877;28;20456;-69
2022/10/04 06:30:13;;;;;;;581.57;549.83;;;6.80;42.90;;;;;;5034959;28;20415;-69
2022/10/04 06:33:06;;;;;;;544.73;513.03;;;7.10;42.40;;;;;;5034809;28;20416;-69
2022/10/04 06:36:00;;;;;;;824.93;772.13;;;7.20;42.00;;;;;;5033401;28;20458;-69
2022/10/04 06:38:35;;;;;;;585.30;550.83;;;7.30;41.10;;;;;;5035035;28;20418;-69
2022/10/04 06:41:12;;;;;;;564.67;532.90;;;7.60;40.80;;;;;;5033084;28;20417;-68
2022/10/04 06:43:58;;;;;;;679.27;641.60;;;7.70;40.00;;;;;;5033529;28;20412;-70
2022/10/04 06:46:42;;;;;;;580.67;547.33;;;7.80;38.80;;;;;;5034727;28;20428;-68
2022/10/04 06:49:38;;;;;;;620.53;583.87;;;7.90;35.80;;;;;;5034693;28;20421;-69
2022/10/04 06:52:28;;;;;;;524.37;495.63;;;8.00;34.50;;;;;;5032959;28;20815;-69
2022/10/04 06:55:19;;;;;;;491.23;465.87;;;7.80;33.10;;;;;;5034369;28;20815;-69
2022/10/04 06:57:44;;;;;;;561.53;529.53;;;7.40;33.90;;;;;;5034374;28;20502;-70
2022/10/04 07:00:19;;;;;;;542.50;513.27;;;7.50;35.60;;;;;;5034568;28;20818;-69
2022/10/04 07:02:48;;;;;;;453.30;429.17;;;7.30;35.40;;;;;;5034224;28;20206;-69
2022/10/04 07:05:19;;;;;;;431.10;409.27;;;7.50;36.40;;;;;;5034487;28;20511;-69
2022/10/04 07:08:05;;;;;;;478.00;452.40;;;7.40;37.30;;;;;;5034481;28;20413;-69
2022/10/04 07:10:47;;;;;;;572.97;541.47;;;7.50;36.60;;;;;;5034268;28;20810;-69
2022/10/04 07:13:25;;;;;;;717.87;674.73;;;7.80;37.50;;;;;;5033786;28;20427;-69
2022/10/04 07:16:15;;;;;;;675.03;637.47;;;8.10;38.10;;;;;;5031074;28;20498;-70
2022/10/04 07:18:58;;;;;;;586.27;553.70;;;8.50;37.00;;;;;;5034080;28;20452;-68
2022/10/04 07:21:35;;;;;;;466.17;440.47;;;8.70;33.00;;;;;;5034104;28;20823;-69
2022/10/04 07:24:02;;;;;;;609.20;574.00;;;8.80;30.50;;;;;;5032217;28;20813;-69
2022/10/04 07:26:35;;;;;;;533.90;503.53;;;9.00;30.50;;;;;;5038761;28;20445;-69
2022/10/04 07:29:19;;;;;;;565.30;534.10;;;9.00;28.40;;;;;;5048174;28;20415;-71
2022/10/04 07:32:04;;;;;;;574.43;541.93;;;8.90;29.50;;;;;;5034929;28;20819;-70
2022/10/04 07:34:35;;;;;;;496.33;468.27;;;8.60;29.00;;;;;;5036080;28;20471;-71
2022/10/04 07:37:07;;;;;;;448.97;424.50;;;8.50;30.20;;;;;;5037767;22;20831;-76
2022/10/04 07:39:45;;;;;;;492.23;464.13;;;8.60;29.90;;;;;;5032461;28;20428;-75
2022/10/04 07:42:26;;;;;;;527.73;498.37;;;8.70;30.10;;;;;;5016666;28;20473;-75
2022/10/04 07:45:10;;;;;;;432.03;406.53;;;8.70;29.00;;;;;;5007778;28;20416;-74
2022/10/04 07:47:36;;;;;;;578.13;543.10;;;8.30;30.40;;;;;;5018670;28;20434;-75
2022/10/04 07:50:23;;;;;;;637.27;599.53;;;8.50;31.80;;;;;;5007781;28;20518;-72
2022/10/04 07:53:03;;;;;;;538.27;508.00;;;8.90;32.60;;;;;;4987452;28;20241;-71
2022/10/04 07:55:44;;;;;;;566.27;532.90;;;9.30;31.30;;;;;;5009193;28;20532;-71
2022/10/04 07:58:32;;;;;;;605.53;571.67;;;9.30;29.10;;;;;;5009543;28;20954;-70
2022/10/04 08:01:03;;;;;;;461.50;435.50;;;9.40;29.00;;;;;;4989422;28;20426;-71
2022/10/04 08:03:38;;;;;;;549.00;517.10;;;9.50;27.10;;;;;;4989756;28;20983;-72
2022/10/04 08:06:42;;;;;;;453.13;426.97;;;9.30;27.60;;;;;;4995796;28;20441;-70
2022/10/04 08:09:27;;;;;;;296.60;277.97;;;9.20;27.80;;;;;;4986606;28;20796;-70
2022/10/04 08:12:18;;;;;;;496.87;468.60;;;8.90;28.30;;;;;;5010832;28;20435;-71
2022/10/04 08:14:55;;;;;;;367.83;347.27;;;9.00;29.00;;;;;;5012961;28;20412;-70
2022/10/04 08:17:40;;;;;;;564.27;532.80;;;9.00;30.40;;;;;;5012852;28;20619;-71
2022/10/04 08:20:27;;;;;;;539.77;507.87;;;9.30;30.30;;;;;;4999012;28;20460;-70
2022/10/04 08:23:11;;;;;;;444.83;419.23;;;9.50;29.20;;;;;;5013585;28;20493;-73
2022/10/04 08:25:51;;;;;;;425.07;400.20;;;9.80;28.20;;;;;;5012761;28;20441;-72
2022/10/04 08:31:43;;;;;;;544.87;513.10;;;9.70;28.40;;;;;;5012555;28;20495;-72
2022/10/04 08:34:46;;;;;;;613.13;573.30;;;10.00;28.10;;;;;;5012913;28;20473;-72
2022/10/04 08:37:46;;;;;;;436.30;410.83;;;10.30;27.90;;;;;;5011397;28;20495;-71
2022/10/04 08:40:32;;;;;;;756.33;706.60;;;10.50;24.80;;;;;;5012655;28;20430;-71
2022/10/04 08:43:03;;;;;;;534.67;503.20;;;10.90;27.40;;;;;;5011712;28;20912;-72
2022/10/04 08:45:54;;;;;;;591.13;555.07;;;11.10;24.00;;;;;;5012381;28;20431;-71
2022/10/04 08:48:48;;;;;;;550.37;517.20;;;11.40;23.60;;;;;;5012639;28;20557;-72
2022/10/04 08:51:35;;;;;;;495.67;466.57;;;11.80;23.10;;;;;;5012050;28;20510;-72
2022/10/04 08:54:34;;;;;;;549.00;513.57;;;12.10;22.50;;;;;;5012598;28;20455;-71
2022/10/04 08:57:52;;;;;;;642.40;600.23;;;12.00;20.50;;;;;;5012121;28;20845;-71
2022/10/04 09:00:55;;;;;;;757.00;704.93;;;12.00;22.20;;;;;;5003749;28;20916;-72
2022/10/04 09:03:39;;;;;;;538.43;503.77;;;12.50;21.60;;;;;;5011224;28;20462;-71
2022/10/04 09:06:38;;;;;;;599.90;561.13;;;12.80;21.50;;;;;;5010745;28;20441;-71
2022/10/04 09:09:22;;;;;;;690.67;644.63;;;13.10;19.90;;;;;;5012429;28;20407;-71
2022/10/04 09:12:07;;;;;;;581.30;542.70;;;12.90;17.50;;;;;;5011861;28;20424;-71
2022/10/04 09:15:01;;;;;;;561.47;525.10;;;13.10;17.80;;;;;;5012312;28;20498;-71
2022/10/04 09:17:49;;;;;;;475.40;447.30;;;12.40;18.10;;;;;;5011925;28;20774;-69
2022/10/04 09:20:45;;;;;;;521.00;489.87;;;11.70;19.50;;;;;;5012073;28;20415;-69
2022/10/04 09:23:32;;;;;;;510.50;479.30;;;11.80;20.50;;;;;;5011540;28;20823;-69
2022/10/04 09:26:22;;;;;;;541.20;506.90;;;12.00;21.00;;;;;;5001425;28;20450;-69
2022/10/04 09:29:25;;;;;;;391.60;367.97;;;12.30;20.70;;;;;;4993028;28;20458;-69
2022/10/04 09:32:08;;;;;;;502.20;471.07;;;12.70;20.30;;;;;;5007431;28;20959;-68
2022/10/04 09:34:52;;;;;;;508.30;476.87;;;12.80;18.50;;;;;;5002743;28;20437;-67
2022/10/04 09:37:50;;;;;;;483.83;453.20;;;12.30;19.90;;;;;;5012212;28;20426;-67
2022/10/04 09:40:34;;;;;;;365.40;343.87;;;12.30;19.90;;;;;;5007404;28;20421;-67
2022/10/04 09:43:05;;;;;;;415.90;391.63;;;11.80;20.30;;;;;;5015438;28;20565;-67
2022/10/04 09:45:53;;;;;;;508.53;477.67;;;11.70;22.20;;;;;;5015902;28;20611;-69
2022/10/04 09:48:42;;;;;;;461.17;433.40;;;12.10;21.40;;;;;;5015846;28;20401;-69
2022/10/04 09:51:26;;;;;;;523.33;492.63;;;12.10;20.40;;;;;;5015339;28;20775;-69
2022/10/04 09:54:03;;;;;;;253.03;235.50;;;12.00;21.70;;;;;;5015461;28;20427;-69
2022/10/04 09:56:37;;;;;;;556.77;523.20;;;12.30;20.80;;;;;;5014353;28;20437;-69
2022/10/04 09:59:25;;;;;;;546.70;512.93;;;12.70;22.20;;;;;;5015663;28;20774;-69
2022/10/04 10:02:12;;;;;;;533.57;499.63;;;13.10;20.50;;;;;;5015324;28;20489;-67
2022/10/04 10:04:49;;;;;;;556.93;521.73;;;13.60;20.20;;;;;;5015293;28;20486;-67
2022/10/04 10:07:39;;;;;;;522.23;489.03;;;14.00;18.30;;;;;;5014066;28;20430;-67
2022/10/04 10:13:39;;;;;;;575.67;538.47;;;14.50;18.10;;;;;;5011701;28;20786;-67
2022/10/04 10:16:29;;;;;;;464.83;433.23;;;14.30;17.00;;;;;;4996556;28;20491;-70
2022/10/04 10:19:23;;;;;;;573.80;537.77;;;14.10;18.00;;;;;;5014185;28;20536;-68
2022/10/04 10:21:56;;;;;;;470.47;441.03;;;14.00;18.60;;;;;;4995394;28;20994;-68
2022/10/04 10:24:35;;;;;;;513.63;479.30;;;14.30;18.60;;;;;;4995711;28;20441;-71
2022/10/04 10:27:33;;;;;;;485.93;454.60;;;14.60;18.10;;;;;;4995240;28;20427;-69
2022/10/04 10:30:19;;;;;;;867.33;796.97;;;14.60;17.20;;;;;;5001797;28;20480;-70
2022/10/04 10:33:12;;;;;;;562.67;526.23;;;14.80;17.40;;;;;;5014894;28;20464;-70
2022/10/04 10:36:00;;;;;;;520.60;491.10;;;15.00;16.40;;;;;;5014477;28;20463;-70
2022/10/04 10:38:50;;;;;;;472.17;444.10;;;15.00;16.60;;;;;;5013756;28;20429;-70
2022/10/04 10:41:54;;;;;;;438.37;411.10;;;15.10;16.20;;;;;;5014218;28;20423;-70
2022/10/04 10:44:25;;;;;;;400.53;377.47;;;14.70;17.30;;;;;;5006513;28;20476;-70
2022/10/04 10:46:51;;;;;;;415.37;389.93;;;14.40;17.40;;;;;;5014839;28;20461;-69
2022/10/04 10:49:39;;;;;;;482.73;455.47;;;14.50;18.20;;;;;;5012922;28;20528;-70
2022/10/04 10:52:26;;;;;;;376.43;354.23;;;14.80;18.20;;;;;;5014417;28;20187;-69
2022/10/04 10:55:26;;;;;;;491.73;463.10;;;14.60;17.40;;;;;;5014493;28;20434;-70
2022/10/04 10:58:36;;;;;;;494.77;465.87;;;14.70;18.20;;;;;;5014542;28;20441;-68
2022/10/04 11:01:22;;;;;;;540.33;506.90;;;15.00;18.40;;;;;;5014482;28;20932;-69
2022/10/04 11:04:03;;;;;;;394.50;369.50;;;15.20;18.30;;;;;;5014272;28;20510;-68
2022/10/04 11:06:56;;;;;;;465.97;437.80;;;15.20;17.20;;;;;;5014573;28;20477;-70
2022/10/04 11:09:59;;;;;;;541.83;509.20;;;15.30;17.70;;;;;;5014371;28;20483;-70
2022/10/04 11:12:48;;;;;;;556.50;523.47;;;15.40;17.80;;;;;;4990946;28;20480;-70
2022/10/04 11:15:33;;;;;;;485.40;453.67;;;15.50;17.30;;;;;;5003614;28;20447;-70
2022/10/04 11:18:17;;;;;;;521.23;489.67;;;15.70;16.80;;;;;;4996527;28;20415;-70
2022/10/04 11:21:04;;;;;;;478.13;447.77;;;15.70;16.70;;;;;;4994332;28;20406;-70
2022/10/04 11:24:07;;;;;;;492.23;462.77;;;15.80;17.10;;;;;;5009726;28;20806;-70
2022/10/04 11:26:57;;;;;;;493.50;460.70;;;15.80;17.00;;;;;;5004862;28;20529;-68
2022/10/04 11:29:36;;;;;;;526.63;491.40;;;16.10;16.50;;;;;;5013901;28;20429;-70
2022/10/04 11:32:19;;;;;;;403.30;379.00;;;;;;;;;;5013902;28;20435;-69
2022/10/04 11:35:25;;;;;;;538.57;505.87;;;16.30;16.60;;;;;;4994611;28;20419;-68
2022/10/04 11:38:15;;;;;;;504.10;473.63;;;15.90;17.00;;;;;;4998181;28;20437;-71
2022/10/04 11:41:06;;;;;;;403.70;378.83;;;15.90;17.60;;;;;;5001748;28;20435;-69
2022/10/04 11:43:51;;;;;;;524.70;492.27;;;16.00;16.70;;;;;;4994754;28;20426;-68
2022/10/04 11:46:48;;;;;;;565.73;532.47;;;16.00;18.10;;;;;;5001094;28;20439;-67
2022/10/04 11:49:52;;;;;;;527.20;495.07;;;16.10;18.30;;;;;;5013889;28;20423;-67
2022/10/04 11:52:48;;;;;;;555.10;520.97;;;16.10;18.30;;;;;;5013785;28;20415;-68
2022/10/04 11:55:33;;;;;;;473.57;443.93;;;16.40;18.50;;;;;;5012683;28;21006;-67
2022/10/04 11:58:15;;;;;;;555.83;521.40;;;16.50;17.90;;;;;;5004996;28;20420;-67
2022/10/04 12:01:10;;;;;;;591.47;547.73;;;16.60;17.80;;;;;;5001839;28;20596;-72
2022/10/04 12:04:05;;;;;;;588.03;547.97;;;16.60;16.80;;;;;;5010796;28;20430;-67
2022/10/04 12:06:51;;;;;;;413.97;389.37;;;16.60;17.20;;;;;;5013537;28;20450;-67
2022/10/04 12:09:42;;;;;;;513.23;481.57;;;16.50;17.70;;;;;;5012282;28;20446;-67
2022/10/04 12:12:43;;;;;;;475.67;446.30;;;16.50;18.50;;;;;;5012667;28;20473;-72
2022/10/04 12:15:29;;;;;;;625.17;585.47;;;16.60;18.60;;;;;;5012851;28;20456;-71
2022/10/04 12:18:13;;;;;;;541.03;505.97;;;16.80;18.40;;;;;;5013007;28;20958;-71
2022/10/04 12:21:19;;;;;;;488.53;458.93;;;17.10;17.60;;;;;;5012980;28;20494;-71
2022/10/04 12:24:17;;;;;;;491.90;458.73;;;17.00;17.50;;;;;;5007637;28;20438;-71
2022/10/04 12:27:01;;;;;;;571.17;529.20;;;17.10;17.90;;;;;;5012697;28;20427;-71
2022/10/04 12:29:58;;;;;;;554.53;518.37;;;17.20;17.50;;;;;;5012979;28;20408;-71
2022/10/04 12:32:52;;;;;;;543.43;506.47;;;17.30;16.20;;;;;;5012688;28;20494;-72
2022/10/04 12:35:26;;;;;;;403.80;378.37;;;17.10;16.90;;;;;;5012936;28;20450;-70
2022/10/04 12:38:18;;;;;;;372.27;351.10;;;17.00;16.80;;;;;;5012752;28;20441;-70
2022/10/04 12:40:58;;;;;;;584.30;545.13;;;16.80;17.50;;;;;;5012766;28;20775;-70
2022/10/04 12:43:33;;;;;;;485.93;456.50;;;16.90;17.50;;;;;;5012679;28;20560;-72
2022/10/04 12:46:10;;;;;;;582.53;544.63;;;16.90;17.50;;;;;;5012954;28;20441;-70
2022/10/04 12:48:49;;;;;;;528.53;494.80;;;17.00;17.60;;;;;;5012951;28;20407;-72
2022/10/04 12:51:39;;;;;;;519.93;487.50;;;17.40;17.50;;;;;;5012992;28;20407;-72
2022/10/04 12:54:22;;;;;;;479.87;450.70;;;17.30;16.60;;;;;;5013217;28;20400;-72
2022/10/04 12:57:24;;;;;;;563.17;526.63;;;17.40;16.50;;;;;;5012661;28;20427;-72
2022/10/04 12:59:53;;;;;;;386.73;365.43;;;17.50;16.00;;;;;;5012639;28;20502;-73
2022/10/04 13:02:53;;;;;;;581.73;545.10;;;17.40;16.50;;;;;;5010739;28;20459;-73
2022/10/04 13:05:22;;;;;;;544.10;505.70;;;17.50;16.40;;;;;;5011103;28;20442;-73
2022/10/04 13:07:50;;;;;;;521.37;488.03;;;17.60;16.60;;;;;;5012283;28;20407;-72
2022/10/04 13:10:34;;;;;;;383.37;358.90;;;17.60;16.00;;;;;;5012388;28;20403;-72
2022/10/04 13:13:19;;;;;;;542.97;508.53;;;17.60;16.20;;;;;;5011679;28;20422;-72
2022/10/04 13:16:30;;;;;;;567.43;528.77;;;17.60;16.20;;;;;;5007994;28;20872;-72
2022/10/04 13:19:41;;;;;;;459.33;431.00;;;17.60;16.60;;;;;;5012482;28;20919;-72
2022/10/04 13:22:45;;;;;;;412.33;385.97;;;17.60;16.60;;;;;;5002963;28;20492;-72
2022/10/04 13:25:51;;;;;;;567.90;528.13;;;17.70;16.70;;;;;;5011765;28;20485;-72
2022/10/04 13:28:40;;;;;;;568.97;530.33;;;17.70;16.90;;;;;;5012228;28;20421;-72
2022/10/04 13:31:23;;;;;;;359.27;339.70;;;17.70;16.20;;;;;;5008763;28;20431;-72
2022/10/04 13:34:19;;;;;;;518.53;485.90;;;17.80;16.80;;;;;;5011996;28;20498;-72